Time;durP1;ratioP1;P1;durP2;ratioP2;P2;SDS_P1;SDS_P2;PMS_P1;PMS_P2;Temp;Humidity;BMP_temperature;BMP_pressure;BME280_temperature;BME280_humidity;BME280_pressure;Samples;Min_cycle;Max_cycle;Signal;HPM_P1;HPM_P2
2021/09/01 00:01:49;;;;;;;9.10;3.40;;;;;;;12.72;100.00;98647.79;233619;1204;22450;-76
2021/09/01 00:06:53;;;;;;;8.10;3.70;;;;;;;12.70;100.00;98648.98;233355;1204;22461;-75
2021/09/01 00:11:57;;;;;;;5.20;2.80;;;;;;;12.67;100.00;98645.45;233227;1206;22463;-76
2021/09/01 00:17:02;;;;;;;7.50;2.90;;;;;;;12.62;100.00;98652.11;233443;1205;22494;-75
2021/09/01 00:22:08;;;;;;;8.20;3.10;;;;;;;12.56;100.00;98653.25;233146;1206;24351;-76
2021/09/01 00:27:16;;;;;;;9.40;3.20;;;;;;;12.52;100.00;98658.64;233181;1207;22633;-75
2021/09/01 00:32:19;;;;;;;7.00;2.90;;;;;;;12.48;100.00;98668.13;233284;1204;25206;-74
2021/09/01 00:37:22;;;;;;;7.70;2.90;;;;;;;12.45;100.00;98668.29;233220;1197;22460;-75
2021/09/01 00:42:24;;;;;;;6.30;2.50;;;;;;;12.44;100.00;98672.83;233140;1206;24112;-75
2021/09/01 00:47:26;;;;;;;8.00;3.00;;;;;;;12.42;100.00;98679.48;233111;1206;24067;-74
2021/09/01 00:52:38;;;;;;;8.20;3.20;;;;;;;12.41;100.00;98685.56;233308;1207;24026;-76
2021/09/01 00:57:41;;;;;;;9.60;3.40;;;;;;;12.37;100.00;98684.86;233465;1207;24062;-75
2021/09/01 01:02:44;;;;;;;6.60;2.60;;;;;;;12.30;100.00;98692.15;233651;1204;25106;-74
2021/09/01 01:07:47;;;;;;;5.20;2.60;;;;;;;12.25;100.00;98693.23;233218;1205;22629;-76
2021/09/01 01:12:55;;;;;;;9.90;3.00;;;;;;;12.19;100.00;98695.39;233052;1207;22466;-74
2021/09/01 01:18:10;;;;;;;6.30;3.00;;;;;;;12.14;100.00;98693.40;233054;1207;24320;-74
2021/09/01 01:23:12;;;;;;;7.00;2.80;;;;;;;12.11;100.00;98697.46;233078;1197;24022;-74
2021/09/01 01:28:15;;;;;;;6.80;2.60;;;;;;;12.10;100.00;98698.41;233091;1203;24478;-73
2021/09/01 01:33:17;;;;;;;7.00;3.20;;;;;;;12.10;100.00;98702.77;232875;1205;24281;-73
2021/09/01 01:38:20;;;;;;;4.20;2.60;;;;;;;12.09;100.00;98708.38;233027;1198;22492;-74
2021/09/01 01:43:23;;;;;;;6.30;3.10;;;;;;;12.07;100.00;98706.59;233104;1205;25305;-75
2021/09/01 01:48:26;;;;;;;7.40;2.90;;;;;;;12.07;100.00;98712.88;233211;1205;22447;-73
2021/09/01 01:53:30;;;;;;;10.90;4.00;;;;;;;12.07;100.00;98706.11;233604;1205;22469;-74
2021/09/01 01:58:33;;;;;;;6.70;3.50;;;;;;;12.06;100.00;98708.44;233456;1204;22521;-75
2021/09/01 02:03:36;;;;;;;6.30;3.00;;;;;;;12.06;100.00;98709.30;233614;1204;22462;-74
2021/09/01 02:08:39;;;;;;;8.70;4.00;;;;;;;12.06;100.00;98707.09;233443;1205;25287;-75
2021/09/01 02:13:42;;;;;;;4.50;3.00;;;;;;;12.08;100.00;98704.36;233352;1206;24111;-75
2021/09/01 02:18:46;;;;;;;7.30;3.50;;;;;;;12.09;100.00;98714.22;233036;1205;24074;-75
2021/09/01 02:23:49;;;;;;;7.80;3.40;;;;;;;12.08;100.00;98714.30;233038;1207;24227;-74
2021/09/01 02:28:58;;;;;;;9.50;4.20;;;;;;;12.08;100.00;98717.58;233183;1205;22476;-74
2021/09/01 02:34:01;;;;;;;7.00;3.50;;;;;;;12.07;100.00;98723.55;233374;1205;22455;-74
2021/09/01 02:39:15;;;;;;;7.00;3.90;;;;;;;12.06;100.00;98723.96;233133;1206;24078;-75
2021/09/01 02:44:19;;;;;;;7.10;3.40;;;;;;;12.02;100.00;98724.14;233030;1205;24137;-74
2021/09/01 02:49:21;;;;;;;6.90;3.40;;;;;;;11.99;100.00;98728.87;233274;1205;22464;-75
2021/09/01 02:54:44;;;;;;;8.20;3.70;;;;;;;11.96;100.00;98730.48;233183;1205;24070;-74
2021/09/01 02:59:54;;;;;;;8.10;2.90;;;;;;;11.94;100.00;98729.65;233399;1204;24081;-75
2021/09/01 03:04:56;;;;;;;5.30;2.70;;;;;;;11.92;100.00;98733.58;233179;1204;24185;-75
2021/09/01 03:09:59;;;;;;;9.40;3.40;;;;;;;11.89;100.00;98737.27;233229;1197;24182;-72
2021/09/01 03:15:02;;;;;;;7.20;3.10;;;;;;;11.86;100.00;98734.77;233340;1206;22455;-76
2021/09/01 03:20:18;;;;;;;8.00;3.50;;;;;;;11.85;100.00;98738.08;233329;1206;25041;-75
2021/09/01 03:25:32;;;;;;;10.20;3.60;;;;;;;11.82;100.00;98742.79;233248;1206;22518;-75
2021/09/01 03:30:48;;;;;;;8.00;4.00;;;;;;;11.82;100.00;98752.41;233462;1205;24066;-73
2021/09/01 03:35:58;;;;;;;9.20;4.10;;;;;;;11.83;100.00;98760.45;233288;1206;24103;-74
2021/09/01 03:41:16;;;;;;;10.20;4.20;;;;;;;11.83;100.00;98762.98;233351;1205;24127;-75
2021/09/01 03:46:19;;;;;;;8.60;3.60;;;;;;;11.81;100.00;98768.73;233358;1206;22455;-75
2021/09/01 03:51:22;;;;;;;11.40;4.00;;;;;;;11.81;100.00;98774.47;233230;1205;24275;-73
2021/09/01 03:56:25;;;;;;;8.50;4.30;;;;;;;11.81;100.00;98781.52;233491;1196;24698;-75
2021/09/01 04:01:27;;;;;;;12.10;4.70;;;;;;;11.82;100.00;98780.80;233394;1206;22457;-76
2021/09/01 04:06:40;;;;;;;11.30;3.90;;;;;;;11.82;100.00;98785.25;233413;1204;22440;-76
2021/09/01 04:11:59;;;;;;;5.10;3.10;;;;;;;11.81;100.00;98796.42;233167;1204;22563;-75
2021/09/01 04:17:17;;;;;;;8.60;3.50;;;;;;;11.81;100.00;98800.08;233011;1206;24903;-74
2021/09/01 04:22:29;;;;;;;9.60;3.40;;;;;;;11.80;100.00;98806.64;233341;1205;24119;-75
2021/09/01 04:27:39;;;;;;;6.50;3.00;;;;;;;11.80;100.00;98820.49;233296;1204;24211;-74
2021/09/01 04:32:42;;;;;;;8.00;3.10;;;;;;;11.78;100.00;98821.33;233542;1198;25312;-74
2021/09/01 04:37:44;;;;;;;9.90;2.90;;;;;;;11.78;100.00;98824.35;233652;1204;23109;-74
2021/09/01 04:42:47;;;;;;;8.30;3.70;;;;;;;11.77;100.00;98834.19;233528;1204;24093;-75
2021/09/01 04:47:59;;;;;;;13.00;3.70;;;;;;;11.76;100.00;98839.10;233471;1204;24090;-75
2021/09/01 04:53:02;;;;;;;5.80;3.00;;;;;;;11.74;100.00;98844.48;233397;1204;22460;-75
2021/09/01 04:58:05;;;;;;;10.30;4.30;;;;;;;11.75;100.00;98845.88;233339;1204;25347;-75
2021/09/01 05:03:08;;;;;;;14.40;5.00;;;;;;;11.76;100.00;98855.40;233550;1204;25106;-74
2021/09/01 05:08:12;;;;;;;14.30;4.60;;;;;;;11.77;100.00;98857.64;233635;1204;24118;-73
2021/09/01 05:13:15;;;;;;;8.40;4.00;;;;;;;11.77;100.00;98855.60;233540;1206;24049;-75
2021/09/01 05:18:20;;;;;;;12.20;5.30;;;;;;;11.78;100.00;98859.23;233313;1204;25140;-74
2021/09/01 05:23:31;;;;;;;9.80;3.90;;;;;;;11.79;100.00;98857.94;233390;1210;22501;-75
2021/09/01 05:28:36;;;;;;;6.90;3.60;;;;;;;11.82;100.00;98859.86;233516;1205;23054;-73
2021/09/01 05:33:48;;;;;;;11.00;3.70;;;;;;;11.83;100.00;98872.26;233290;1205;22459;-75
2021/09/01 05:38:54;;;;;;;8.00;3.90;;;;;;;11.81;100.00;98868.73;233566;1205;24192;-73
2021/09/01 05:43:59;;;;;;;6.10;3.60;;;;;;;11.81;100.00;98877.00;233925;1197;25411;-75
2021/09/01 05:49:02;;;;;;;13.50;4.30;;;;;;;11.84;100.00;98877.08;233899;1207;22441;-74
2021/09/01 05:54:07;;;;;;;9.90;4.00;;;;;;;11.87;100.00;98889.04;233933;1205;24094;-74
2021/09/01 05:59:22;;;;;;;7.90;3.30;;;;;;;11.88;100.00;98890.86;233940;1204;22461;-75
2021/09/01 06:04:34;;;;;;;9.70;3.40;;;;;;;11.90;100.00;98891.73;234000;1206;22452;-76
2021/09/01 06:09:38;;;;;;;6.70;3.40;;;;;;;11.92;100.00;98896.69;234509;1197;22469;-75
2021/09/01 06:15:00;;;;;;;7.40;3.30;;;;;;;11.95;100.00;98896.30;233802;1205;22454;-73
2021/09/01 06:20:05;;;;;;;7.20;3.10;;;;;;;11.94;100.00;98910.16;233557;1205;24241;-73
2021/09/01 06:25:08;;;;;;;6.00;3.10;;;;;;;11.94;100.00;98909.68;234171;1206;24061;-74
2021/09/01 06:30:12;;;;;;;13.60;3.80;;;;;;;11.95;100.00;98912.35;233859;1205;22458;-74
2021/09/01 06:35:16;;;;;;;8.00;3.40;;;;;;;11.97;100.00;98922.04;233993;1199;24106;-74
2021/09/01 06:40:20;;;;;;;8.40;4.40;;;;;;;11.97;100.00;98932.39;234452;1204;22475;-74
2021/09/01 06:45:23;;;;;;;13.60;5.30;;;;;;;11.99;100.00;98936.66;234818;1197;22520;-75
2021/09/01 06:50:27;;;;;;;13.10;4.80;;;;;;;12.03;100.00;98943.80;234196;1204;24897;-75
2021/09/01 06:55:37;;;;;;;12.70;4.20;;;;;;;12.07;100.00;98948.02;234225;1204;23464;-75
2021/09/01 07:00:56;;;;;;;11.20;4.60;;;;;;;12.11;100.00;98957.09;234021;1200;25938;-75
2021/09/01 07:06:07;;;;;;;11.20;5.30;;;;;;;12.13;100.00;98958.55;234215;1199;22577;-72
2021/09/01 07:11:10;;;;;;;16.40;5.60;;;;;;;12.15;100.00;98965.77;234570;1204;24060;-73
2021/09/01 07:16:13;;;;;;;15.40;5.70;;;;;;;12.18;100.00;98979.05;233497;1204;24084;-72
2021/09/01 07:21:16;;;;;;;11.10;5.50;;;;;;;12.19;100.00;98994.30;233196;1197;24024;-73
2021/09/01 07:26:19;;;;;;;11.40;5.20;;;;;;;12.19;100.00;98998.91;233214;1204;22452;-71
2021/09/01 07:31:22;;;;;;;16.40;5.80;;;;;;;12.21;100.00;99006.17;232980;1206;22485;-73
2021/09/01 07:36:25;;;;;;;15.50;6.60;;;;;;;12.26;100.00;99009.31;233507;1206;22456;-74
2021/09/01 07:41:29;;;;;;;14.10;6.20;;;;;;;12.31;100.00;99015.41;233500;1204;22503;-72
2021/09/01 07:46:33;;;;;;;15.00;5.50;;;;;;;12.41;100.00;99014.46;233383;1204;25084;-72
2021/09/01 07:51:38;;;;;;;15.20;6.20;;;;;;;12.55;100.00;99025.50;233578;1204;22460;-74
2021/09/01 07:56:41;;;;;;;14.20;5.60;;;;;;;12.67;100.00;99035.36;233474;1205;22422;-73
2021/09/01 08:01:48;;;;;;;15.80;6.10;;;;;;;12.75;100.00;99042.20;233518;1204;23560;-74
2021/09/01 08:07:08;;;;;;;13.20;5.40;;;;;;;12.79;100.00;99044.45;233525;1204;22456;-73
2021/09/01 08:12:11;;;;;;;14.60;5.70;;;;;;;12.81;100.00;99051.02;233687;1204;25216;-72
2021/09/01 08:17:16;;;;;;;15.20;5.70;;;;;;;12.82;100.00;99059.32;233891;1204;24121;-72
2021/09/01 08:22:19;;;;;;;15.10;5.50;;;;;;;12.85;100.00;99062.67;233427;1204;22461;-72
2021/09/01 08:27:23;;;;;;;15.20;6.50;;;;;;;12.95;100.00;99064.80;233746;1205;24070;-72
2021/09/01 08:32:26;;;;;;;19.90;6.30;;;;;;;13.22;100.00;99073.92;233514;1204;26159;-73
2021/09/01 08:37:28;;;;;;;20.90;6.60;;;;;;;13.38;100.00;99084.64;233531;1201;22433;-72
2021/09/01 08:42:32;;;;;;;12.00;5.60;;;;;;;13.49;100.00;99091.27;233928;1204;23042;-71
2021/09/01 08:47:39;;;;;;;15.80;5.90;;;;;;;13.47;100.00;99102.61;234211;1204;24112;-71
2021/09/01 08:52:42;;;;;;;19.40;6.40;;;;;;;13.44;100.00;99102.99;233555;1205;23613;-70
2021/09/01 08:57:52;;;;;;;13.30;5.70;;;;;;;13.51;100.00;99109.20;233167;1204;24096;-73
2021/09/01 09:03:21;;;;;;;12.80;5.10;;;;;;;13.62;100.00;99112.91;234022;1198;22477;-78
2021/09/01 09:08:34;;;;;;;21.20;5.90;;;;;;;13.81;100.00;99118.45;235313;1203;25042;-72
2021/09/01 09:13:38;;;;;;;20.10;6.30;;;;;;;13.97;100.00;99122.38;233286;1205;24078;-71
2021/09/01 09:18:43;;;;;;;16.10;6.30;;;;;;;14.22;100.00;99119.73;233474;1204;22457;-74
2021/09/01 09:23:49;;;;;;;14.70;6.30;;;;;;;14.59;100.00;99125.21;233195;1204;24064;-75
2021/09/01 09:29:14;;;;;;;23.50;5.80;;;;;;;14.91;100.00;99119.52;233837;1204;22569;-76
2021/09/01 09:34:20;;;;;;;12.30;4.50;;;;;;;15.08;99.95;99121.73;234892;1204;22469;-79
2021/09/01 09:39:39;;;;;;;16.10;5.70;;;;;;;15.14;99.08;99126.45;234847;1204;22498;-78
2021/09/01 09:44:42;;;;;;;10.20;5.10;;;;;;;15.29;98.69;99136.36;233771;1204;22590;-75
2021/09/01 09:49:44;;;;;;;14.00;6.00;;;;;;;15.53;98.28;99140.52;233305;1204;24059;-75
2021/09/01 09:54:47;;;;;;;14.50;6.30;;;;;;;15.56;96.71;99143.30;233419;1205;24029;-75
2021/09/01 09:59:50;;;;;;;18.00;5.30;;;;;;;15.58;95.96;99148.06;233308;1204;22444;-72
2021/09/01 10:04:54;;;;;;;13.60;4.90;;;;;;;15.69;96.28;99146.73;233868;1207;24096;-74
2021/09/01 10:09:56;;;;;;;13.60;6.30;;;;;;;15.88;95.86;99151.23;233985;1207;22501;-72
2021/09/01 10:15:01;;;;;;;14.40;4.40;;;;;;;15.99;95.41;99159.48;234037;1204;22472;-74
2021/09/01 10:20:08;;;;;;;9.30;5.00;;;;;;;15.99;94.23;99164.55;235085;1205;22461;-72
2021/09/01 10:25:40;;;;;;;13.10;5.00;;;;;;;16.02;93.70;99173.92;235366;1204;22520;-72
2021/09/01 10:31:13;;;;;;;9.00;4.20;;;;;;;15.95;92.51;99179.16;235082;1208;22474;-74
2021/09/01 10:36:37;;;;;;;11.10;4.50;;;;;;;15.86;92.40;99183.07;234440;1200;25302;-74
2021/09/01 10:41:40;;;;;;;13.00;4.80;;;;;;;15.83;92.38;99186.40;234052;1204;24074;-73
2021/09/01 10:46:55;;;;;;;12.40;4.60;;;;;;;15.91;92.87;99188.02;233189;1205;24031;-73
2021/09/01 10:52:03;;;;;;;9.20;4.70;;;;;;;16.05;92.14;99196.64;233811;1208;25029;-75
2021/09/01 10:57:25;;;;;;;9.10;4.30;;;;;;;16.08;91.62;99200.30;233808;1209;23526;-75
2021/09/01 11:02:28;;;;;;;11.40;5.60;;;;;;;16.25;91.88;99207.58;233411;1208;22462;-74
2021/09/01 11:07:45;;;;;;;10.00;4.50;;;;;;;16.47;91.27;99213.30;233487;1204;22652;-74
2021/09/01 11:12:58;;;;;;;8.90;4.00;;;;;;;16.38;89.39;99223.91;233113;1203;22515;-74
2021/09/01 11:18:09;;;;;;;9.50;4.30;;;;;;;16.23;89.05;99220.48;233359;1212;22784;-73
2021/09/01 11:23:13;;;;;;;10.60;4.80;;;;;;;16.25;89.02;99217.86;233391;1208;22453;-74
2021/09/01 11:28:16;;;;;;;12.20;5.10;;;;;;;16.39;89.03;99220.45;233295;1210;22468;-73
2021/09/01 11:33:19;;;;;;;14.60;5.00;;;;;;;16.65;89.06;99215.96;233577;1209;22474;-76
2021/09/01 11:38:22;;;;;;;14.20;5.00;;;;;;;16.90;88.85;99221.70;233232;1204;22517;-74
2021/09/01 11:43:25;;;;;;;9.60;4.00;;;;;;;17.15;88.44;99215.52;233952;1205;22491;-73
2021/09/01 11:48:39;;;;;;;9.80;4.30;;;;;;;17.21;87.06;99209.23;234106;1212;24119;-74
2021/09/01 11:53:43;;;;;;;6.30;3.30;;;;;;;17.21;86.27;99206.59;233663;1203;22511;-79
2021/09/01 11:59:03;;;;;;;13.70;3.20;;;;;;;17.16;85.18;99206.52;233887;1205;22637;-77
2021/09/01 12:04:08;;;;;;;7.20;3.70;;;;;;;17.19;85.10;99205.58;233930;1205;24990;-75
2021/09/01 12:09:35;;;;;;;12.70;4.30;;;;;;;17.35;84.42;99206.77;233625;1205;24032;-75
2021/09/01 12:14:38;;;;;;;8.40;3.70;;;;;;;17.37;83.21;99206.70;235992;1205;22483;-77
2021/09/01 12:19:48;;;;;;;5.80;2.80;;;;;;;17.37;81.97;99205.39;234108;1205;22491;-75
2021/09/01 12:25:17;;;;;;;9.20;3.90;;;;;;;17.53;81.93;99196.77;235225;1208;25330;-73
2021/09/01 12:30:46;;;;;;;12.10;4.00;;;;;;;17.82;82.33;99206.00;234157;1208;24105;-80
2021/09/01 12:36:00;;;;;;;6.50;3.30;;;;;;;18.06;81.59;99207.25;235566;1203;24102;-80
2021/09/01 12:41:22;;;;;;;6.90;2.90;;;;;;;18.29;79.92;99210.52;235163;1203;22464;-78
2021/09/01 12:46:46;;;;;;;7.10;3.60;;;;;;;18.49;79.70;99204.77;235815;1212;22517;-82
2021/09/01 12:51:49;;;;;;;7.90;3.60;;;;;;;18.52;78.80;99203.08;235622;1208;25238;-81
2021/09/01 12:56:52;;;;;;;12.20;4.00;;;;;;;18.46;78.07;99199.33;235580;1208;24074;-82
2021/09/01 13:01:55;;;;;;;5.80;3.00;;;;;;;18.50;77.71;99203.97;235445;1209;22512;-82
2021/09/01 13:06:59;;;;;;;8.60;3.50;;;;;;;18.58;77.43;99209.69;235677;1211;22452;-80
2021/09/01 13:12:03;;;;;;;12.80;4.10;;;;;;;18.81;76.64;99207.70;235907;1206;22475;-81
2021/09/01 13:17:08;;;;;;;4.30;2.60;;;;;;;18.96;76.06;99210.60;236108;1205;22553;-82
2021/09/01 13:22:13;;;;;;;9.30;4.00;;;;;;;19.02;75.10;99206.61;235974;1205;22470;-85
2021/09/01 13:27:17;;;;;;;8.00;3.30;;;;;;;18.97;75.03;99211.58;235706;1205;22491;-83
2021/09/01 13:32:21;;;;;;;7.40;2.70;;;;;;;18.85;75.17;99213.91;235780;1209;22492;-83
2021/09/01 13:37:23;;;;;;;7.60;3.70;;;;;;;18.74;74.68;99222.42;236037;1209;22487;-79
2021/09/01 13:42:27;;;;;;;9.40;3.90;;;;;;;18.75;75.13;99224.36;237197;1210;22462;-82
2021/09/01 13:47:30;;;;;;;8.20;3.00;;;;;;;18.68;75.19;99221.89;236174;1205;22509;-83
2021/09/01 13:52:33;;;;;;;10.70;3.70;;;;;;;18.46;74.81;99226.84;236016;1208;22448;-85
2021/09/01 13:57:38;;;;;;;5.40;3.20;;;;;;;18.34;75.12;99224.87;236155;1203;26190;-78
2021/09/01 14:02:45;;;;;;;7.10;3.30;;;;;;;18.39;74.99;99229.59;236106;1205;22457;-78
2021/09/01 14:07:48;;;;;;;10.40;4.40;;;;;;;18.43;75.13;99223.00;234392;1206;22462;-79
2021/09/01 14:12:54;;;;;;;7.90;3.50;;;;;;;18.39;75.26;99225.27;233959;1205;22877;-77
2021/09/01 14:18:14;;;;;;;8.60;3.20;;;;;;;18.36;75.29;99226.77;234508;1204;22475;-82
2021/09/01 14:23:18;;;;;;;5.30;3.10;;;;;;;18.39;74.05;99226.94;234577;1204;22566;-79
2021/09/01 14:28:20;;;;;;;6.90;2.90;;;;;;;18.34;74.16;99228.62;234162;1208;25084;-88
2021/09/01 14:33:24;;;;;;;6.30;3.20;;;;;;;18.29;74.66;99230.17;234046;1205;24071;-77
2021/09/01 14:38:27;;;;;;;9.60;4.00;;;;;;;18.35;75.06;99228.05;233922;1205;22630;-79
2021/09/01 14:43:31;;;;;;;9.40;3.60;;;;;;;18.51;75.06;99228.02;234300;1205;22404;-78
2021/09/01 14:48:34;;;;;;;8.90;3.90;;;;;;;18.60;75.14;99229.84;233697;1205;22610;-79
2021/09/01 14:53:37;;;;;;;9.50;4.00;;;;;;;18.62;75.01;99226.98;233797;1205;24054;-80
2021/09/01 14:58:51;;;;;;;10.70;4.50;;;;;;;18.63;75.04;99224.77;235483;1204;24243;-79
2021/09/01 15:03:54;;;;;;;10.20;4.00;;;;;;;18.67;74.84;99224.48;234199;1205;25398;-80
2021/09/01 15:08:56;;;;;;;8.00;3.60;;;;;;;18.61;74.17;99217.67;234251;1205;22544;-80
2021/09/01 15:14:00;;;;;;;9.40;3.80;;;;;;;18.36;74.19;99211.81;234337;1209;22430;-81
2021/09/01 15:19:03;;;;;;;9.40;4.30;;;;;;;18.19;74.26;99214.40;234856;1206;24105;-80
2021/09/01 15:24:15;;;;;;;7.80;3.60;;;;;;;18.11;75.12;99213.56;234232;1205;25297;-81
2021/09/01 15:29:38;;;;;;;7.60;3.80;;;;;;;18.17;75.54;99211.62;234724;1203;24042;-82
2021/09/01 15:34:44;;;;;;;7.00;2.90;;;;;;;18.22;75.08;99206.33;234665;1205;22464;-81
2021/09/01 15:40:09;;;;;;;7.20;3.30;;;;;;;18.07;74.86;99206.92;234764;1206;22599;-82
2021/09/01 15:45:13;;;;;;;10.10;3.70;;;;;;;17.89;75.04;99205.24;235156;1207;22636;-82
2021/09/01 15:50:21;;;;;;;9.90;3.60;;;;;;;17.76;75.29;99202.52;235162;1212;22382;-81
2021/09/01 15:55:24;;;;;;;8.30;3.60;;;;;;;17.77;75.41;99204.70;235513;1205;22450;-81
2021/09/01 16:00:45;;;;;;;10.10;4.60;;;;;;;17.73;75.66;99209.41;235794;1202;24131;-81
2021/09/01 16:06:08;;;;;;;12.20;4.60;;;;;;;17.63;75.62;99208.85;235471;1205;22471;-86
2021/09/01 16:11:15;;;;;;;7.90;3.90;;;;;;;17.54;75.98;99207.25;235606;1206;22402;-82
2021/09/01 16:16:25;;;;;;;9.00;3.80;;;;;;;17.49;76.22;99209.31;235894;1209;22488;-83
2021/09/01 16:21:33;;;;;;;9.70;3.60;;;;;;;17.50;76.61;99211.89;236606;1205;22509;-84
2021/09/01 16:26:40;;;;;;;18.10;4.40;;;;;;;17.53;76.58;99210.64;235702;1209;22484;-82
2021/09/01 16:31:45;;;;;;;7.40;3.80;;;;;;;17.53;76.45;99213.94;235865;1210;22695;-81
2021/09/01 16:36:49;;;;;;;6.30;3.90;;;;;;;17.42;76.31;99210.42;235204;1197;24301;-81
2021/09/01 16:41:56;;;;;;;7.20;3.50;;;;;;;17.24;76.30;99220.11;235720;1205;22643;-81
2021/09/01 16:47:01;;;;;;;9.20;4.10;;;;;;;17.05;76.62;99214.09;235917;1209;22411;-81
2021/09/01 16:52:08;;;;;;;11.60;4.00;;;;;;;16.90;76.97;99216.67;235649;1205;22537;-79
2021/09/01 16:57:21;;;;;;;10.30;4.70;;;;;;;16.75;77.32;99220.14;235599;1209;26040;-80
2021/09/01 17:02:25;;;;;;;11.50;5.10;;;;;;;16.61;77.60;99221.51;235288;1209;22467;-81
2021/09/01 17:07:31;;;;;;;19.20;5.50;;;;;;;16.48;77.94;99225.55;235883;1206;23656;-79
2021/09/01 17:12:35;;;;;;;13.90;5.90;;;;;;;16.32;78.17;99229.86;235036;1208;24074;-84
2021/09/01 17:17:38;;;;;;;17.70;4.80;;;;;;;16.16;78.41;99233.30;235132;1209;24116;-81
2021/09/01 17:22:42;;;;;;;11.90;5.50;;;;;;;16.00;78.90;99231.31;235587;1205;22591;-80
2021/09/01 17:27:46;;;;;;;10.90;5.20;;;;;;;15.85;79.22;99234.52;234967;1212;24294;-81
2021/09/01 17:32:50;;;;;;;13.90;5.30;;;;;;;15.67;79.44;99237.80;235365;1209;22864;-80
2021/09/01 17:37:59;;;;;;;13.60;5.10;;;;;;;15.49;79.84;99240.79;236221;1201;24012;-81
2021/09/01 17:43:04;;;;;;;13.50;5.50;;;;;;;15.35;80.17;99247.68;235506;1204;25212;-85
2021/09/01 17:48:25;;;;;;;14.80;6.30;;;;;;;15.24;80.72;99251.23;235176;1200;24049;-81
2021/09/01 17:53:42;;;;;;;12.30;4.50;;;;;;;15.09;80.90;99256.20;235469;1212;22465;-81
2021/09/01 17:58:47;;;;;;;19.90;6.60;;;;;;;14.95;81.18;99258.84;235133;1205;25221;-83
2021/09/01 18:03:49;;;;;;;15.30;6.20;;;;;;;14.81;81.48;99269.23;235195;1207;24080;-80
2021/09/01 18:08:53;;;;;;;19.60;6.70;;;;;;;14.70;81.95;99273.52;234359;1206;22581;-82
2021/09/01 18:14:01;;;;;;;14.10;6.30;;;;;;;14.60;82.39;99281.93;234927;1209;22767;-81
2021/09/01 18:19:03;;;;;;;18.80;6.30;;;;;;;14.49;82.61;99278.84;234355;1212;25189;-81
2021/09/01 18:24:09;;;;;;;13.10;5.80;;;;;;;14.37;82.84;99277.10;234393;1207;24568;-79
2021/09/01 18:29:12;;;;;;;16.10;6.20;;;;;;;14.30;83.19;99279.93;234249;1206;24067;-79
2021/09/01 18:34:16;;;;;;;18.40;7.30;;;;;;;14.22;83.47;99284.56;234633;1204;22472;-82
2021/09/01 18:39:18;;;;;;;17.80;6.10;;;;;;;14.16;83.76;99284.30;235255;1205;22454;-82
2021/09/01 18:44:23;;;;;;;19.20;7.20;;;;;;;14.08;83.77;99286.63;235015;1204;22599;-80
2021/09/01 18:49:35;;;;;;;19.90;7.30;;;;;;;13.98;83.70;99291.83;235368;1204;22581;-81
2021/09/01 18:54:40;;;;;;;17.80;6.90;;;;;;;13.88;83.88;99297.34;235118;1207;22450;-81
2021/09/01 18:59:44;;;;;;;22.40;7.80;;;;;;;13.81;84.17;99303.34;235071;1205;22488;-81
2021/09/01 19:04:50;;;;;;;19.40;7.20;;;;;;;13.81;84.55;99313.09;235388;1198;22500;-80
2021/09/01 19:10:00;;;;;;;17.40;6.20;;;;;;;13.84;84.96;99316.79;235221;1207;22606;-80
2021/09/01 19:15:09;;;;;;;16.40;6.80;;;;;;;13.88;85.17;99316.51;234972;1207;22605;-81
2021/09/01 19:20:14;;;;;;;17.90;8.10;;;;;;;13.93;85.58;99318.14;234410;1204;23956;-80
2021/09/01 19:25:17;;;;;;;24.50;8.30;;;;;;;14.04;85.88;99313.90;234230;1201;22499;-81
2021/09/01 19:30:21;;;;;;;26.40;8.80;;;;;;;14.12;85.88;99312.24;235028;1207;22406;-80
2021/09/01 19:35:24;;;;;;;22.10;9.10;;;;;;;14.20;86.14;99322.33;235398;1207;22477;-81
2021/09/01 19:40:26;;;;;;;21.60;8.80;;;;;;;14.28;86.14;99321.05;235178;1204;22526;-80
2021/09/01 19:45:29;;;;;;;29.10;8.70;;;;;;;14.32;86.02;99321.99;235192;1198;24206;-79
2021/09/01 19:50:34;;;;;;;28.80;9.30;;;;;;;14.35;86.01;99323.99;234553;1204;24093;-80
2021/09/01 19:55:42;;;;;;;20.00;7.60;;;;;;;14.34;85.72;99326.64;234579;1204;22463;-80
2021/09/01 20:00:51;;;;;;;17.80;7.80;;;;;;;14.24;85.43;99324.41;234550;1197;22650;-83
2021/09/01 20:05:55;;;;;;;22.30;7.40;;;;;;;14.15;85.53;99327.05;235270;1206;26372;-81
2021/09/01 20:11:11;;;;;;;22.00;7.20;;;;;;;14.10;85.70;99333.95;235054;1204;22468;-81
2021/09/01 20:16:31;;;;;;;21.90;7.40;;;;;;;14.08;86.01;99335.92;234935;1206;25191;-80
2021/09/01 20:21:36;;;;;;;22.00;8.60;;;;;;;14.07;86.33;99336.85;234830;1206;22473;-81
2021/09/01 20:26:40;;;;;;;22.70;7.90;;;;;;;14.08;86.46;99337.73;235002;1212;22462;-81
2021/09/01 20:31:44;;;;;;;23.20;8.20;;;;;;;14.05;86.24;99346.80;235080;1204;22452;-81
2021/09/01 20:36:47;;;;;;;20.80;8.00;;;;;;;14.02;86.36;99342.97;234961;1205;24089;-81
2021/09/01 20:41:57;;;;;;;17.10;6.80;;;;;;;14.00;86.27;99347.38;234960;1204;22645;-81
2021/09/01 20:47:04;;;;;;;20.50;7.30;;;;;;;13.93;86.21;99346.05;234725;1206;24125;-81
2021/09/01 20:52:09;;;;;;;14.60;4.90;;;;;;;13.89;86.34;99353.55;234982;1205;24845;-80
2021/09/01 20:57:14;;;;;;;18.50;6.50;;;;;;;13.85;86.39;99353.45;234461;1204;22464;-81
2021/09/01 21:02:18;;;;;;;16.20;6.10;;;;;;;13.85;86.77;99356.46;233911;1206;22474;-81
2021/09/01 21:07:35;;;;;;;18.10;6.60;;;;;;;13.85;86.80;99360.29;234293;1207;23070;-80
2021/09/01 21:12:40;;;;;;;17.90;6.40;;;;;;;13.85;86.95;99363.80;234290;1206;25362;-81
2021/09/01 21:18:00;;;;;;;15.10;6.60;;;;;;;13.89;87.09;99362.77;234237;1206;22445;-81
2021/09/01 21:23:06;;;;;;;17.20;5.50;;;;;;;13.86;86.97;99363.12;234481;1204;22593;-83
2021/09/01 21:28:13;;;;;;;17.90;6.30;;;;;;;13.80;86.94;99360.10;235192;1206;23950;-82
2021/09/01 21:33:30;;;;;;;17.90;7.20;;;;;;;13.75;87.18;99365.08;235013;1206;22492;-80
2021/09/01 21:38:49;;;;;;;20.00;7.00;;;;;;;13.77;87.37;99361.35;234602;1200;22537;-81
2021/09/01 21:43:57;;;;;;;27.90;6.90;;;;;;;13.79;87.54;99365.45;234731;1205;24529;-81
2021/09/01 21:48:59;;;;;;;21.10;6.50;;;;;;;13.80;87.59;99365.38;234140;1212;22451;-80
2021/09/01 21:54:04;;;;;;;14.80;6.30;;;;;;;13.81;87.63;99370.70;233899;1206;24118;-80
2021/09/01 21:59:08;;;;;;;17.30;7.00;;;;;;;13.84;87.84;99372.54;234792;1205;25196;-81
2021/09/01 22:04:14;;;;;;;23.00;7.40;;;;;;;13.89;88.14;99374.13;235092;1206;25181;-78
2021/09/01 22:09:18;;;;;;;18.90;7.70;;;;;;;13.92;88.25;99376.01;234531;1206;22409;-79
2021/09/01 22:14:21;;;;;;;26.50;7.10;;;;;;;13.87;87.88;99377.23;234139;1206;24045;-80
2021/09/01 22:19:24;;;;;;;22.70;6.90;;;;;;;13.74;87.73;99381.54;234666;1205;22461;-80
2021/09/01 22:24:26;;;;;;;25.00;8.50;;;;;;;13.70;88.37;99376.42;234270;1205;22574;-81
2021/09/01 22:29:29;;;;;;;23.50;8.80;;;;;;;13.71;88.93;99378.08;234255;1204;22526;-81
2021/09/01 22:34:32;;;;;;;27.50;7.80;;;;;;;13.76;89.81;99374.28;234271;1200;25217;-79
2021/09/01 22:39:34;;;;;;;23.80;7.90;;;;;;;13.80;89.49;99373.84;234453;1204;24048;-79
2021/09/01 22:44:41;;;;;;;21.60;8.40;;;;;;;13.76;88.84;99369.21;234377;1205;22370;-80
2021/09/01 22:50:03;;;;;;;17.60;7.30;;;;;;;13.75;88.54;99369.08;234134;1205;22485;-80
2021/09/01 22:55:06;;;;;;;21.90;7.30;;;;;;;13.70;88.29;99368.56;234206;1204;22578;-80
2021/09/01 23:00:10;;;;;;;25.20;8.70;;;;;;;13.69;88.26;99366.80;234221;1204;22379;-81
2021/09/01 23:05:13;;;;;;;30.30;9.30;;;;;;;13.72;88.62;99367.52;234207;1204;23019;-79
2021/09/01 23:10:16;;;;;;;26.90;9.10;;;;;;;13.84;89.30;99360.08;234098;1205;24079;-79
2021/09/01 23:15:20;;;;;;;23.90;7.90;;;;;;;13.90;88.79;99360.38;234207;1204;22453;-81
2021/09/01 23:20:23;;;;;;;24.90;8.10;;;;;;;13.91;88.55;99362.24;234334;1198;24028;-80
2021/09/01 23:25:26;;;;;;;22.00;8.30;;;;;;;13.89;88.41;99360.27;234177;1204;25162;-84
2021/09/01 23:30:29;;;;;;;28.00;8.50;;;;;;;13.90;88.49;99357.69;234680;1206;22468;-80